createdAt,value
2018-08-17T00:00:03.469Z,20.95
2018-08-17T00:02:32.250Z,20.93
2018-08-17T00:05:01.147Z,20.86
2018-08-17T00:07:29.833Z,20.85
2018-08-17T00:09:58.709Z,20.79
2018-08-17T00:12:27.497Z,20.79
2018-08-17T00:14:56.265Z,20.82
2018-08-17T00:17:25.025Z,20.80
2018-08-17T00:19:53.829Z,20.74
2018-08-17T00:22:22.562Z,20.71
2018-08-17T00:24:51.258Z,20.74
2018-08-17T00:27:20.063Z,20.69
2018-08-17T00:29:48.833Z,20.61
2018-08-17T00:32:17.731Z,20.63
2018-08-17T00:34:46.658Z,20.53
2018-08-17T00:37:15.429Z,20.51
2018-08-17T00:39:44.088Z,20.50
2018-08-17T00:42:12.793Z,20.50
2018-08-17T00:44:41.457Z,20.50
2018-08-17T00:47:10.205Z,20.48
2018-08-17T00:49:39.367Z,20.43
2018-08-17T00:52:08.061Z,20.45
2018-08-17T00:54:37.148Z,20.41
2018-08-17T00:57:06.069Z,20.43
2018-08-17T00:59:34.978Z,20.44
2018-08-17T01:02:03.846Z,20.42
2018-08-17T01:04:32.619Z,20.36
2018-08-17T01:07:01.322Z,20.34
2018-08-17T01:09:30.190Z,20.31
2018-08-17T01:11:58.876Z,20.27
2018-08-17T01:14:27.532Z,20.18
2018-08-17T01:16:56.645Z,20.16
2018-08-17T01:19:25.453Z,20.17
2018-08-17T01:21:54.240Z,20.18
2018-08-17T01:24:23.017Z,20.13
2018-08-17T01:26:51.690Z,20.14
2018-08-17T01:29:20.499Z,20.12
2018-08-17T01:31:49.413Z,20.10
2018-08-17T01:34:18.164Z,20.07
2018-08-17T01:36:47.081Z,20.06
2018-08-17T01:39:16.099Z,19.99
2018-08-17T01:41:44.762Z,19.96
2018-08-17T01:44:13.519Z,19.91
2018-08-17T01:46:42.528Z,19.90
2018-08-17T01:49:11.324Z,19.81
2018-08-17T01:51:40.273Z,19.76
2018-08-17T01:54:09.070Z,19.75
2018-08-17T01:56:37.797Z,19.71
2018-08-17T01:59:07.062Z,19.70
2018-08-17T02:01:35.801Z,19.67
2018-08-17T02:04:04.555Z,19.62
2018-08-17T02:06:33.249Z,19.62
2018-08-17T02:09:01.938Z,19.60
2018-08-17T02:11:30.647Z,19.59
2018-08-17T02:13:59.386Z,19.59
2018-08-17T02:16:28.393Z,19.60
2018-08-17T02:18:57.082Z,19.58
2018-08-17T02:21:25.901Z,19.54
2018-08-17T02:23:54.576Z,19.53
2018-08-17T02:26:23.499Z,19.49
2018-08-17T02:28:52.166Z,19.47
2018-08-17T02:31:20.961Z,19.43
2018-08-17T02:33:49.890Z,19.37
2018-08-17T02:36:18.786Z,19.31
2018-08-17T02:38:47.440Z,19.29
2018-08-17T02:41:16.252Z,19.26
2018-08-17T02:43:45.021Z,19.18
2018-08-17T02:46:14.017Z,19.16
2018-08-17T02:48:43.128Z,19.16
2018-08-17T02:51:12.194Z,19.11
2018-08-17T02:53:40.827Z,19.06
2018-08-17T02:56:09.915Z,19.06
2018-08-17T02:58:38.653Z,18.99
2018-08-17T03:01:07.573Z,19.00
2018-08-17T03:03:36.320Z,18.97
2018-08-17T03:06:05.026Z,18.93
2018-08-17T03:08:33.896Z,18.93
2018-08-17T03:11:02.622Z,18.93
2018-08-17T03:13:31.393Z,18.89
2018-08-17T03:16:00.153Z,18.87
2018-08-17T03:18:29.069Z,18.84
2018-08-17T03:20:57.779Z,18.84
2018-08-17T03:23:26.672Z,18.77
2018-08-17T03:25:55.453Z,18.75
2018-08-17T03:28:24.095Z,18.72
2018-08-17T03:30:52.934Z,18.72
2018-08-17T03:33:22.032Z,18.71
2018-08-17T03:35:50.787Z,18.70
2018-08-17T03:38:19.797Z,18.70
2018-08-17T03:40:48.451Z,18.60
2018-08-17T03:43:17.091Z,18.55
2018-08-17T03:45:45.767Z,18.56
2018-08-17T03:48:14.646Z,18.53
2018-08-17T03:50:43.549Z,18.47
2018-08-17T03:53:12.286Z,18.39
